CheckWX is a tool to help pilots better visualize weather data.  It is not intended as a substitute for an official pre-flight weather briefing.

22:41:39 UTC

EGFF METAR
Cardiff International Airport
Cardiff, United Kingdom
Current

22 mins ago

EGFF 202220Z AUTO 28006KT 9999 FEW016 SCT020 15/13 Q1016
Observed
Jul-20 @ 22:20 UTC
Wind
  • 280° at 6 KTS
Visibility
10,000+ meters
Flight Rules
VFR
Cloud Levels
  • Few at 1,600' AGL
  • Scattered at 2,000' AGL
Temperature
15°C / 59°F
Dewpoint
13°C / 55°F
Humidity
88%
Altimeter
30" Hg
Pressure
1015.92 hPa
Previous

52 mins ago

EGFF 202150Z AUTO 28006KT 9999 SCT016 15/13 Q1016
Observed
Jul-20 @ 21:50 UTC
Wind
  • 280° at 6 KTS
Visibility
10,000+ meters
Flight Rules
VFR
Cloud Levels
  • Scattered at 1,600' AGL
Temperature
15°C / 59°F
Dewpoint
13°C / 55°F
Humidity
88%
Altimeter
30" Hg
Pressure
1015.92 hPa
Previous

1 hour ago

EGFF 202120Z AUTO 28007KT 9999 NCD 15/13 Q1016
Observed
Jul-20 @ 21:20 UTC
Wind
  • 280° at 7 KTS
Visibility
10,000+ meters
Flight Rules
VFR
Cloud Levels
  • Clear skies
Temperature
15°C / 59°F
Dewpoint
13°C / 55°F
Humidity
88%
Altimeter
30" Hg
Pressure
1015.92 hPa